Time;durP1;ratioP1;P1;durP2;ratioP2;P2;SDS_P1;SDS_P2;PMS_P1;PMS_P2;Temp;Humidity;BMP_temperature;BMP_pressure;BME280_temperature;BME280_humidity;BME280_pressure;Samples;Min_cycle;Max_cycle;Signal;HPM_P1;HPM_P2
2022/12/01 00:01:06;;;;;;;39.83;13.57;;;;;;;;;;5033715;28;20032;-60
2022/12/01 00:03:31;;;;;;;42.15;13.68;;;;;;;;;;5033573;28;20037;-59
2022/12/01 00:06:01;;;;;;;39.20;13.45;;;;;;;;;;5033489;28;20021;-59
2022/12/01 00:08:26;;;;;;;43.72;13.48;;;;;;;;;;5032210;28;20048;-59
2022/12/01 00:10:52;;;;;;;39.83;13.27;;;;;;;;;;5033394;28;20021;-58
2022/12/01 00:13:17;;;;;;;43.63;14.52;;;;;;;;;;5033271;28;20039;-58
2022/12/01 00:15:42;;;;;;;41.57;13.90;;;;;;;;;;5033567;28;20036;-58
2022/12/01 00:18:08;;;;;;;45.27;13.80;;;;;;;;;;5032631;28;20034;-58
2022/12/01 00:20:33;;;;;;;40.67;14.82;;;;;;;;;;5027542;28;20460;-58
2022/12/01 00:22:59;;;;;;;42.38;14.07;;;;;;;;;;5032479;28;20051;-59
2022/12/01 00:25:24;;;;;;;49.50;14.77;;;;;;;;;;5032013;28;20026;-59
2022/12/01 00:27:51;;;;;;;42.37;13.67;;;;;;;;;;5030034;28;20030;-59
2022/12/01 00:30:16;;;;;;;40.80;13.98;;;;;;;;;;5031121;28;20045;-59
2022/12/01 00:32:41;;;;;;;43.17;15.32;;;;;;;;;;5025926;28;20053;-59
2022/12/01 00:35:07;;;;;;;38.13;14.07;;;;;;;;;;5031149;28;20025;-59
2022/12/01 00:37:33;;;;;;;41.78;14.55;;;;;;;;;;5032195;28;20497;-60
2022/12/01 00:39:58;;;;;;;38.53;12.88;;;;;;;;;;5032957;28;20064;-59
2022/12/01 00:42:23;;;;;;;39.57;14.37;;;;;;;;;;5032354;28;20060;-60
2022/12/01 00:44:48;;;;;;;40.97;13.20;;;;;;;;;;5031357;28;20539;-60
2022/12/01 00:47:13;;;;;;;38.30;13.13;;;;;;;;;;5031774;28;20484;-59
2022/12/01 00:49:39;;;;;;;40.83;13.37;;;;;;;;;;5032504;28;20712;-59
2022/12/01 00:52:04;;;;;;;36.97;12.70;;;;;;;;;;5032063;28;20128;-59
2022/12/01 00:54:32;;;;;;;37.70;13.40;;;;;;;;;;5031866;28;20636;-59
2022/12/01 00:56:58;;;;;;;36.65;13.45;;;;;;;;;;5032869;28;20017;-58
2022/12/01 00:59:23;;;;;;;41.38;13.27;;;;;;;;;;5030229;28;20048;-59
2022/12/01 01:01:48;;;;;;;40.67;12.83;;;;;;;;;;5031508;28;20017;-58
2022/12/01 01:04:13;;;;;;;40.13;13.77;;;;;;;;;;5032017;28;21315;-59
2022/12/01 01:06:39;;;;;;;44.13;13.90;;;;;;;;;;5031547;28;20480;-57
2022/12/01 01:09:04;;;;;;;44.00;14.30;;;;;;;;;;5031785;28;20444;-59
2022/12/01 01:11:29;;;;;;;43.00;14.30;;;;;;;;;;5030060;28;20050;-57
2022/12/01 01:13:54;;;;;;;43.27;14.03;;;;;;;;;;5032228;28;20029;-58
2022/12/01 01:16:20;;;;;;;41.33;13.70;;;;;;;;;;5032077;28;20017;-57
2022/12/01 01:18:45;;;;;;;43.28;14.40;;;;;;;;;;5031465;28;20017;-58
2022/12/01 01:21:11;;;;;;;39.00;13.48;;;;;;;;;;5020010;28;20027;-59
2022/12/01 01:23:37;;;;;;;37.40;13.35;;;;;;;;;;5030409;28;20480;-59
2022/12/01 01:26:03;;;;;;;39.38;12.57;;;;;;;;;;5031556;28;20021;-58
2022/12/01 01:28:29;;;;;;;37.38;12.57;;;;;;;;;;5031348;28;20088;-59
2022/12/01 01:30:54;;;;;;;39.67;13.48;;;;;;;;;;5031570;28;20515;-59
2022/12/01 01:33:19;;;;;;;42.50;12.70;;;;;;;;;;5031508;28;20053;-58
2022/12/01 01:35:44;;;;;;;39.47;13.03;;;;;;;;;;5026634;28;20472;-58
2022/12/01 01:38:10;;;;;;;39.43;13.40;;;;;;;;;;5031243;28;20021;-58
2022/12/01 01:40:41;;;;;;;38.95;14.63;;;;;;;;;;5031543;28;20021;-59
2022/12/01 01:43:11;;;;;;;41.65;14.63;;;;;;;;;;5031735;28;20060;-59
2022/12/01 01:45:37;;;;;;;41.35;13.38;;;;;;;;;;5030774;28;20052;-59
2022/12/01 01:48:03;;;;;;;39.80;13.65;;;;;;;;;;5030648;28;20428;-59
2022/12/01 01:50:28;;;;;;;35.67;12.02;;;;;;;;;;5030498;28;20433;-59
2022/12/01 01:52:59;;;;;;;39.03;12.90;;;;;;;;;;5031491;28;20119;-59
2022/12/01 01:55:24;;;;;;;44.33;14.02;;;;;;;;;;5031609;28;20032;-63
2022/12/01 01:57:49;;;;;;;38.97;13.05;;;;;;;;;;5031035;28;20010;-59
2022/12/01 02:00:16;;;;;;;42.55;13.50;;;;;;;;;;5030578;28;20029;-59
2022/12/01 02:02:42;;;;;;;42.03;13.23;;;;;;;;;;5030861;28;20028;-59
2022/12/01 02:05:10;;;;;;;41.60;13.40;;;;;;;;;;5030989;28;20013;-58
2022/12/01 02:07:38;;;;;;;45.75;14.73;;;;;;;;;;5030703;28;20044;-58
2022/12/01 02:10:03;;;;;;;38.35;12.80;;;;;;;;;;5030665;28;20047;-58
2022/12/01 02:12:36;;;;;;;44.22;14.38;;;;;;;;;;5029427;28;20037;-57
2022/12/01 02:15:10;;;;;;;35.28;12.50;;;;;;;;;;5030510;28;20029;-58
2022/12/01 02:17:45;;;;;;;36.33;13.15;;;;;;;;;;5015102;28;20506;-58
2022/12/01 02:20:28;;;;;;;44.40;14.32;;;;;;;;;;5028913;28;20116;-58
2022/12/01 02:23:12;;;;;;;43.92;14.60;;;;;;;;;;5029068;28;20100;-58
2022/12/01 02:25:43;;;;;;;35.10;12.98;;;;;;;;;;5027600;28;20083;-58
2022/12/01 02:28:33;;;;;;;41.10;12.88;;;;;;;;;;5030085;28;20486;-58
2022/12/01 02:31:12;;;;;;;39.28;13.13;;;;;;;;;;5030829;28;20076;-58
2022/12/01 02:33:41;;;;;;;38.22;11.73;;;;;;;;;;5030233;28;20667;-59
2022/12/01 02:36:13;;;;;;;40.38;13.20;;;;;;;;;;5030551;28;20036;-59
2022/12/01 02:38:44;;;;;;;42.50;14.45;;;;;;;;;;5029196;28;20025;-59
2022/12/01 02:41:18;;;;;;;42.33;13.40;;;;;;;;;;5025083;28;20009;-59
2022/12/01 02:44:10;;;;;;;43.80;13.98;;;;;;;;;;5025355;28;20074;-59
2022/12/01 02:46:37;;;;;;;39.80;12.95;;;;;;;;;;5028965;28;20464;-59
2022/12/01 02:49:09;;;;;;;38.30;12.00;;;;;;;;;;5029806;28;20033;-58
2022/12/01 02:51:35;;;;;;;42.13;13.07;;;;;;;;;;5029493;28;20033;-59
2022/12/01 02:54:01;;;;;;;43.53;14.50;;;;;;;;;;5029891;28;20025;-59
2022/12/01 02:56:27;;;;;;;43.00;13.77;;;;;;;;;;5029561;28;20025;-59
2022/12/01 02:58:52;;;;;;;38.85;13.40;;;;;;;;;;5030039;28;20044;-59
2022/12/01 03:01:29;;;;;;;43.97;13.50;;;;;;;;;;5029570;28;20026;-59
2022/12/01 03:03:58;;;;;;;46.22;13.60;;;;;;;;;;5029119;28;20075;-59
2022/12/01 03:06:36;;;;;;;43.60;13.52;;;;;;;;;;5030220;28;20029;-59
2022/12/01 03:09:01;;;;;;;41.70;12.82;;;;;;;;;;5030221;28;20033;-59
2022/12/01 03:12:05;;;;;;;42.27;13.73;;;;;;;;;;5029091;28;20456;-60
2022/12/01 03:14:35;;;;;;;43.60;12.63;;;;;;;;;;5026929;28;20028;-59
2022/12/01 03:17:03;;;;;;;44.88;13.80;;;;;;;;;;5026659;28;20026;-59
2022/12/01 03:19:34;;;;;;;41.50;13.60;;;;;;;;;;5017866;28;20052;-60
2022/12/01 03:22:00;;;;;;;48.13;13.32;;;;;;;;;;5028807;28;20025;-59
2022/12/01 03:24:26;;;;;;;44.72;13.60;;;;;;;;;;5029658;28;20400;-59
2022/12/01 03:26:55;;;;;;;41.90;12.85;;;;;;;;;;5029868;28;20021;-59
2022/12/01 03:29:24;;;;;;;44.60;13.07;;;;;;;;;;5027217;28;20029;-59
2022/12/01 03:31:52;;;;;;;47.22;12.80;;;;;;;;;;5026004;28;20076;-59
2022/12/01 03:34:53;;;;;;;45.40;13.30;;;;;;;;;;5029624;28;20384;-59
2022/12/01 03:37:33;;;;;;;52.42;14.38;;;;;;;;;;5026935;28;20029;-59
2022/12/01 03:40:01;;;;;;;47.65;12.48;;;;;;;;;;5024595;28;20099;-59
2022/12/01 03:42:32;;;;;;;47.88;13.30;;;;;;;;;;5027830;28;20036;-59
2022/12/01 03:44:59;;;;;;;52.97;14.57;;;;;;;;;;5029741;28;20029;-60
2022/12/01 03:47:30;;;;;;;55.58;14.90;;;;;;;;;;5028633;28;20021;-59
2022/12/01 03:49:57;;;;;;;49.97;13.43;;;;;;;;;;5020966;28;20036;-59
2022/12/01 03:52:41;;;;;;;46.42;12.50;;;;;;;;;;5025749;28;20535;-59
2022/12/01 03:55:16;;;;;;;50.55;13.57;;;;;;;;;;5027425;28;20068;-59
2022/12/01 03:57:46;;;;;;;47.72;13.75;;;;;;;;;;5028536;28;20045;-59
2022/12/01 04:00:12;;;;;;;49.53;12.57;;;;;;;;;;5027389;28;20082;-60
2022/12/01 04:02:38;;;;;;;54.65;13.68;;;;;;;;;;5029220;28;20021;-59
2022/12/01 04:05:04;;;;;;;47.95;13.18;;;;;;;;;;5029953;28;20557;-60
2022/12/01 04:07:29;;;;;;;47.10;13.07;;;;;;;;;;5027892;28;20385;-59
2022/12/01 04:09:54;;;;;;;49.20;14.60;;;;;;;;;;5029093;28;20032;-59
2022/12/01 04:12:28;;;;;;;50.60;13.82;;;;;;;;;;5028771;28;20045;-59
2022/12/01 04:14:57;;;;;;;52.47;13.55;;;;;;;;;;5027178;28;20413;-59
2022/12/01 04:17:22;;;;;;;46.67;13.32;;;;;;;;;;5026925;28;20045;-59
2022/12/01 04:19:47;;;;;;;53.00;16.00;;;;;;;;;;5025714;28;20091;-59
2022/12/01 04:22:13;;;;;;;59.33;15.00;;;;;;;;;;5027614;28;20035;-58
2022/12/01 04:24:38;;;;;;;54.03;13.83;;;;;;;;;;5027774;28;20044;-58
2022/12/01 04:27:03;;;;;;;47.93;13.03;;;;;;;;;;5025627;28;20036;-59
2022/12/01 04:29:28;;;;;;;46.63;13.15;;;;;;;;;;5023918;28;20541;-59
2022/12/01 04:31:53;;;;;;;51.17;13.27;;;;;;;;;;5024223;28;20458;-58
2022/12/01 04:34:19;;;;;;;51.17;14.02;;;;;;;;;;5027282;28;20468;-58
2022/12/01 04:36:44;;;;;;;51.97;13.00;;;;;;;;;;5030880;28;20388;-58
2022/12/01 04:39:09;;;;;;;49.47;13.50;;;;;;;;;;5032170;28;20104;-60
2022/12/01 04:41:34;;;;;;;50.77;13.93;;;;;;;;;;5032122;28;20093;-59
2022/12/01 04:43:59;;;;;;;55.28;14.40;;;;;;;;;;5031265;28;20451;-59
2022/12/01 04:46:24;;;;;;;59.60;13.93;;;;;;;;;;5032096;28;20026;-59
2022/12/01 04:48:50;;;;;;;52.07;13.37;;;;;;;;;;5033219;28;20026;-59
2022/12/01 04:51:15;;;;;;;61.72;16.30;;;;;;;;;;5032393;28;20040;-59
2022/12/01 04:53:40;;;;;;;61.23;15.07;;;;;;;;;;5029210;28;20040;-58
2022/12/01 04:56:06;;;;;;;64.90;14.07;;;;;;;;;;5030386;28;20042;-63
2022/12/01 04:58:31;;;;;;;61.53;14.55;;;;;;;;;;5032179;28;20485;-58
2022/12/01 05:01:04;;;;;;;60.88;14.98;;;;;;;;;;5031418;28;20033;-58
2022/12/01 05:03:29;;;;;;;56.47;14.77;;;;;;;;;;5028205;28;20025;-58
2022/12/01 05:06:01;;;;;;;65.22;15.68;;;;;;;;;;5031901;28;20041;-58
2022/12/01 05:08:26;;;;;;;61.38;15.60;;;;;;;;;;5030351;28;20132;-59
2022/12/01 05:10:53;;;;;;;59.60;15.27;;;;;;;;;;5027495;28;20113;-59
2022/12/01 05:13:18;;;;;;;;;;;;;;;;;;5031664;28;20076;-59
2022/12/01 05:15:43;;;;;;;55.33;12.88;;;;;;;;;;5031676;28;19952;-58
2022/12/01 05:18:09;;;;;;;53.67;14.80;;;;;;;;;;5032415;28;20485;-58
2022/12/01 05:23:18;;;;;;;59.80;15.32;;;;;;;;;;5029295;28;20056;-58
2022/12/01 05:25:43;;;;;;;61.40;15.20;;;;;;;;;;5026530;28;20476;-58
2022/12/01 05:28:08;;;;;;;62.87;15.63;;;;;;;;;;5019328;28;20025;-58
2022/12/01 05:30:33;;;;;;;66.73;15.40;;;;;;;;;;5034907;28;20032;-58
2022/12/01 05:32:58;;;;;;;60.20;15.63;;;;;;;;;;5043216;28;20585;-58
2022/12/01 05:35:24;;;;;;;61.77;15.53;;;;;;;;;;5029796;28;20026;-59
2022/12/01 05:37:49;;;;;;;62.23;15.83;;;;;;;;;;5025575;28;20029;-58
2022/12/01 05:40:14;;;;;;;61.92;14.40;;;;;;;;;;5027265;28;20793;-59
2022/12/01 05:42:39;;;;;;;58.47;15.13;;;;;;;;;;5027055;28;20029;-59
2022/12/01 05:45:04;;;;;;;63.88;14.85;;;;;;;;;;5027989;28;20025;-59
2022/12/01 05:47:30;;;;;;;49.50;12.65;;;;;;;;;;5028642;28;20044;-58
2022/12/01 05:49:55;;;;;;;59.73;15.13;;;;;;;;;;5026553;28;20791;-58
2022/12/01 05:52:20;;;;;;;55.83;14.63;;;;;;;;;;5027854;28;20124;-58
2022/12/01 05:54:45;;;;;;;55.93;14.77;;;;;;;;;;5028318;28;20025;-58
2022/12/01 05:57:10;;;;;;;53.97;14.57;;;;;;;;;;5024265;28;20107;-59
2022/12/01 05:59:35;;;;;;;54.20;13.77;;;;;;;;;;5025685;28;20067;-59
2022/12/01 06:02:00;;;;;;;52.15;13.77;;;;;;;;;;5020213;28;20036;-59
2022/12/01 06:04:26;;;;;;;46.67;13.00;;;;;;;;;;5019237;28;20079;-58
2022/12/01 06:06:51;;;;;;;46.03;13.53;;;;;;;;;;5016951;28;20507;-57
2022/12/01 06:09:16;;;;;;;48.33;12.53;;;;;;;;;;5024244;28;20091;-59
2022/12/01 06:11:41;;;;;;;42.88;11.88;;;;;;;;;;5026922;28;20434;-58
2022/12/01 06:14:06;;;;;;;46.97;13.23;;;;;;;;;;5024735;28;20030;-58
2022/12/01 06:16:31;;;;;;;56.50;13.27;;;;;;;;;;5027474;28;20028;-59
2022/12/01 06:18:57;;;;;;;44.77;13.17;;;;;;;;;;5026320;28;20036;-61
2022/12/01 06:21:22;;;;;;;48.03;13.57;;;;;;;;;;5022907;28;20041;-60
2022/12/01 06:23:47;;;;;;;46.55;13.02;;;;;;;;;;5022176;28;20025;-60
2022/12/01 06:26:12;;;;;;;47.67;12.97;;;;;;;;;;5027521;28;20114;-61
2022/12/01 06:28:37;;;;;;;53.20;13.63;;;;;;;;;;5026774;28;20032;-61
2022/12/01 06:31:02;;;;;;;49.60;13.33;;;;;;;;;;5029822;28;20060;-60
2022/12/01 06:33:28;;;;;;;51.03;14.13;;;;;;;;;;5030741;28;20021;-60
2022/12/01 06:35:57;;;;;;;55.17;13.83;;;;;;;;;;5030758;28;20021;-61
2022/12/01 06:38:22;;;;;;;50.40;12.75;;;;;;;;;;5030884;28;20469;-60
2022/12/01 06:40:47;;;;;;;46.93;14.33;;;;;;;;;;5029378;28;20020;-61
2022/12/01 06:43:12;;;;;;;52.30;14.80;;;;;;;;;;5030814;28;20025;-61
2022/12/01 06:45:38;;;;;;;56.63;14.73;;;;;;;;;;5030871;28;20100;-61
2022/12/01 06:48:03;;;;;;;55.70;13.33;;;;;;;;;;5030681;28;20634;-60
2022/12/01 06:50:28;;;;;;;52.27;14.47;;;;;;;;;;5027766;28;20025;-61
2022/12/01 06:52:53;;;;;;;53.10;15.93;;;;;;;;;;5026451;28;20025;-59
2022/12/01 06:55:18;;;;;;;49.63;14.02;;;;;;;;;;5034547;28;20033;-60
2022/12/01 06:57:44;;;;;;;54.07;15.40;;;;;;;;;;5028971;28;20384;-59
2022/12/01 07:00:10;;;;;;;58.73;13.93;;;;;;;;;;5028200;28;20021;-59
2022/12/01 07:02:35;;;;;;;53.78;14.32;;;;;;;;;;5028695;28;20037;-59
2022/12/01 07:05:00;;;;;;;53.33;14.87;;;;;;;;;;5030311;28;20083;-59
2022/12/01 07:07:25;;;;;;;61.97;16.07;;;;;;;;;;5028143;28;20033;-59
2022/12/01 07:09:51;;;;;;;59.03;15.90;;;;;;;;;;5029616;28;20049;-59
2022/12/01 07:12:16;;;;;;;59.73;16.47;;;;;;;;;;5028872;28;20140;-58
2022/12/01 07:14:41;;;;;;;52.03;14.93;;;;;;;;;;5026771;28;20506;-59
2022/12/01 07:17:08;;;;;;;61.78;15.65;;;;;;;;;;5037984;28;20025;-59
2022/12/01 07:19:33;;;;;;;50.20;14.00;;;;;;;;;;5040779;28;20033;-58
2022/12/01 07:21:58;;;;;;;53.27;15.60;;;;;;;;;;5029859;28;20021;-59
2022/12/01 07:24:23;;;;;;;62.40;16.10;;;;;;;;;;5027545;28;20499;-59
2022/12/01 07:26:48;;;;;;;60.07;16.77;;;;;;;;;;5029989;28;20056;-59
2022/12/01 07:29:13;;;;;;;56.13;15.87;;;;;;;;;;5030435;28;20468;-59
2022/12/01 07:31:39;;;;;;;61.03;16.27;;;;;;;;;;5030001;28;20033;-59
2022/12/01 07:34:04;;;;;;;70.03;18.63;;;;;;;;;;5028730;28;20034;-59
2022/12/01 07:36:29;;;;;;;58.33;17.13;;;;;;;;;;5029622;28;20025;-59
2022/12/01 07:38:55;;;;;;;53.20;15.27;;;;;;;;;;5029271;28;20392;-60
2022/12/01 07:41:20;;;;;;;58.63;17.17;;;;;;;;;;5030229;28;20013;-61
2022/12/01 07:43:46;;;;;;;66.47;17.80;;;;;;;;;;5031838;28;20088;-59
2022/12/01 07:46:13;;;;;;;62.63;17.48;;;;;;;;;;5027515;28;20036;-60
2022/12/01 07:48:38;;;;;;;65.50;17.63;;;;;;;;;;5025917;28;20423;-60
2022/12/01 07:51:04;;;;;;;62.83;17.65;;;;;;;;;;5029086;28;20021;-59
2022/12/01 07:53:30;;;;;;;59.67;15.95;;;;;;;;;;5026518;28;20388;-59
2022/12/01 07:55:55;;;;;;;62.47;17.33;;;;;;;;;;5028889;28;20072;-59
2022/12/01 07:58:20;;;;;;;68.87;18.87;;;;;;;;;;5029576;28;20631;-59
2022/12/01 08:00:45;;;;;;;66.60;19.63;;;;;;;;;;5028935;28;20104;-59
2022/12/01 08:03:11;;;;;;;64.70;19.00;;;;;;;;;;5028879;28;20056;-58
2022/12/01 08:05:36;;;;;;;65.60;18.17;;;;;;;;;;5027977;28;20391;-59
2022/12/01 08:08:01;;;;;;;66.43;17.40;;;;;;;;;;5029023;28;20025;-59
2022/12/01 08:10:27;;;;;;;66.07;17.17;;;;;;;;;;5029035;28;20040;-59
2022/12/01 08:12:52;;;;;;;66.27;18.23;;;;;;;;;;5033285;28;20471;-58
2022/12/01 08:15:17;;;;;;;62.70;17.87;;;;;;;;;;5034335;28;20443;-58
2022/12/01 08:17:42;;;;;;;63.53;17.27;;;;;;;;;;5033070;28;20472;-59
2022/12/01 08:20:07;;;;;;;62.77;17.53;;;;;;;;;;5033479;28;20034;-59
2022/12/01 08:22:33;;;;;;;67.32;16.60;;;;;;;;;;5033869;28;20400;-58
2022/12/01 08:24:58;;;;;;;63.70;17.53;;;;;;;;;;5033590;28;20025;-59
2022/12/01 08:27:23;;;;;;;68.78;18.55;;;;;;;;;;5032753;28;20125;-59
2022/12/01 08:29:48;;;;;;;70.23;19.77;;;;;;;;;;5033425;28;20030;-58
2022/12/01 08:32:15;;;;;;;69.00;19.37;;;;;;;;;;5033603;28;20102;-59
2022/12/01 08:34:40;;;;;;;70.00;17.42;;;;;;;;;;5033387;28;20394;-62
2022/12/01 08:37:05;;;;;;;65.50;18.03;;;;;;;;;;5032529;28;20022;-58
2022/12/01 08:39:30;;;;;;;71.75;18.63;;;;;;;;;;5033823;28;20025;-58
2022/12/01 08:41:56;;;;;;;69.70;20.43;;;;;;;;;;5033262;28;20052;-58
2022/12/01 08:44:21;;;;;;;72.55;20.17;;;;;;;;;;5033712;28;20036;-58
2022/12/01 08:46:46;;;;;;;72.83;20.17;;;;;;;;;;5033428;28;20032;-59
2022/12/01 08:49:11;;;;;;;75.27;20.73;;;;;;;;;;5031972;28;20500;-59
2022/12/01 08:51:36;;;;;;;60.60;16.97;;;;;;;;;;5033319;28;20059;-58
2022/12/01 08:54:02;;;;;;;67.47;19.53;;;;;;;;;;5033213;28;20104;-59
2022/12/01 08:56:27;;;;;;;62.97;17.80;;;;;;;;;;5033208;28;20086;-59
2022/12/01 08:58:52;;;;;;;60.07;17.60;;;;;;;;;;5032212;28;20022;-59
2022/12/01 09:01:18;;;;;;;55.13;18.10;;;;;;;;;;5032839;28;20025;-59
2022/12/01 09:03:43;;;;;;;55.92;16.30;;;;;;;;;;5032843;28;20172;-59
2022/12/01 09:06:10;;;;;;;63.92;18.63;;;;;;;;;;5032882;28;20018;-59
2022/12/01 09:08:36;;;;;;;60.65;17.35;;;;;;;;;;5032000;28;20036;-59
2022/12/01 09:11:03;;;;;;;66.43;17.83;;;;;;;;;;5031985;28;20026;-59
2022/12/01 09:13:28;;;;;;;57.33;18.00;;;;;;;;;;5032481;28;20365;-59
2022/12/01 09:15:54;;;;;;;66.45;18.33;;;;;;;;;;5032921;28;20083;-59
2022/12/01 09:18:19;;;;;;;63.00;17.10;;;;;;;;;;5030464;28;20036;-59
2022/12/01 09:20:46;;;;;;;69.00;19.02;;;;;;;;;;5031274;28;20013;-59
2022/12/01 09:23:11;;;;;;;63.42;16.55;;;;;;;;;;5031970;28;20030;-59
2022/12/01 09:25:36;;;;;;;63.27;18.67;;;;;;;;;;5032921;28;20423;-59
2022/12/01 09:28:01;;;;;;;67.67;18.33;;;;;;;;;;5032635;28;20096;-60
2022/12/01 09:30:26;;;;;;;66.93;18.27;;;;;;;;;;5030785;28;20582;-59
2022/12/01 09:32:51;;;;;;;62.95;18.08;;;;;;;;;;5032348;28;20040;-60
2022/12/01 09:35:16;;;;;;;73.87;19.87;;;;;;;;;;5032438;28;20546;-59
2022/12/01 09:37:42;;;;;;;72.70;21.23;;;;;;;;;;5032645;28;20017;-59
2022/12/01 09:40:09;;;;;;;66.80;19.43;;;;;;;;;;5031203;28;20018;-59
2022/12/01 09:42:34;;;;;;;;;;;;;;;;;;5032538;28;20436;-59
2022/12/01 09:45:01;;;;;;;74.60;21.87;;;;;;;;;;5032465;28;19905;-59
2022/12/01 09:47:26;;;;;;;69.97;20.73;;;;;;;;;;5032371;28;20029;-58
2022/12/01 09:49:53;;;;;;;72.93;20.15;;;;;;;;;;5031923;28;20022;-59
2022/12/01 09:52:19;;;;;;;69.07;19.67;;;;;;;;;;5030784;28;20041;-59
2022/12/01 09:54:45;;;;;;;75.68;19.80;;;;;;;;;;5032349;28;20026;-58
2022/12/01 09:57:25;;;;;;;73.72;19.17;;;;;;;;;;5032031;28;20025;-60
2022/12/01 09:59:50;;;;;;;76.45;21.42;;;;;;;;;;5032169;28;20097;-59
2022/12/01 10:02:21;;;;;;;68.68;20.65;;;;;;;;;;5030023;28;20117;-58
2022/12/01 10:04:47;;;;;;;63.10;18.08;;;;;;;;;;5031808;28;20022;-59
2022/12/01 10:07:18;;;;;;;61.42;17.92;;;;;;;;;;5031968;28;20032;-59
2022/12/01 10:09:50;;;;;;;71.63;20.50;;;;;;;;;;5032159;28;20092;-59
2022/12/01 10:12:17;;;;;;;62.70;19.13;;;;;;;;;;5030376;28;20183;-59
2022/12/01 10:14:46;;;;;;;76.97;21.02;;;;;;;;;;5031591;28;20027;-59
2022/12/01 10:17:14;;;;;;;74.40;20.23;;;;;;;;;;5031443;28;20765;-60
2022/12/01 10:19:45;;;;;;;78.05;21.25;;;;;;;;;;5031747;28;20021;-63
2022/12/01 10:22:26;;;;;;;67.68;20.00;;;;;;;;;;5029853;28;20067;-59
2022/12/01 10:24:53;;;;;;;73.82;21.23;;;;;;;;;;5031426;28;20460;-59
2022/12/01 10:27:31;;;;;;;75.03;21.00;;;;;;;;;;5031508;28;20044;-59
2022/12/01 10:30:11;;;;;;;66.03;18.67;;;;;;;;;;5031612;28;20447;-60
2022/12/01 10:32:51;;;;;;;73.75;20.92;;;;;;;;;;5030373;28;20029;-58
2022/12/01 10:35:17;;;;;;;70.18;19.33;;;;;;;;;;5030503;28;20766;-59
2022/12/01 10:37:43;;;;;;;70.95;20.23;;;;;;;;;;5031328;28;20026;-59
2022/12/01 10:40:11;;;;;;;66.88;19.83;;;;;;;;;;5031226;28;20116;-59
2022/12/01 10:42:39;;;;;;;69.95;18.98;;;;;;;;;;5031209;28;20048;-59
2022/12/01 10:45:07;;;;;;;63.88;19.05;;;;;;;;;;5030166;28;20032;-59
2022/12/01 10:47:32;;;;;;;61.10;18.58;;;;;;;;;;5031388;28;20025;-59
2022/12/01 10:49:57;;;;;;;59.08;18.40;;;;;;;;;;5030970;28;20403;-59
2022/12/01 10:52:32;;;;;;;66.10;20.65;;;;;;;;;;5030674;28;20080;-59
2022/12/01 10:54:57;;;;;;;72.45;19.85;;;;;;;;;;5030234;28;20383;-59
2022/12/01 10:57:24;;;;;;;73.28;21.63;;;;;;;;;;5031120;28;20104;-60
2022/12/01 10:59:51;;;;;;;69.78;21.30;;;;;;;;;;5031087;28;20014;-59
2022/12/01 11:02:19;;;;;;;68.03;20.35;;;;;;;;;;5030167;28;20028;-59
2022/12/01 11:05:04;;;;;;;63.38;19.65;;;;;;;;;;5029701;28;20036;-59
2022/12/01 11:07:44;;;;;;;61.50;19.30;;;;;;;;;;5030671;28;20065;-59
2022/12/01 11:10:15;;;;;;;73.00;21.70;;;;;;;;;;5030731;28;20022;-59
2022/12/01 11:12:51;;;;;;;70.00;20.00;;;;;;;;;;5028377;28;20132;-59
2022/12/01 11:15:17;;;;;;;61.30;19.05;;;;;;;;;;5030442;28;20018;-59
2022/12/01 11:17:43;;;;;;;71.70;21.25;;;;;;;;;;5030833;28;20023;-60
2022/12/01 11:20:27;;;;;;;67.57;18.70;;;;;;;;;;5030727;28;20024;-59
2022/12/01 11:23:11;;;;;;;71.00;19.58;;;;;;;;;;5029822;28;20033;-59
2022/12/01 11:25:36;;;;;;;69.85;21.13;;;;;;;;;;5030778;28;20079;-60
2022/12/01 11:28:02;;;;;;;65.22;19.88;;;;;;;;;;5030725;28;20424;-60
2022/12/01 11:30:29;;;;;;;59.55;19.60;;;;;;;;;;5030325;28;20025;-59
2022/12/01 11:32:56;;;;;;;61.17;18.10;;;;;;;;;;5029723;28;20059;-59
2022/12/01 11:35:22;;;;;;;57.95;18.60;;;;;;;;;;5029508;28;20024;-59
2022/12/01 11:37:52;;;;;;;60.67;17.80;;;;;;;;;;5030530;28;20022;-59
2022/12/01 11:40:22;;;;;;;62.75;19.52;;;;;;;;;;5030304;28;20029;-59
2022/12/01 11:42:52;;;;;;;61.67;19.08;;;;;;;;;;5029931;28;20033;-59
2022/12/01 11:45:20;;;;;;;69.47;20.60;;;;;;;;;;5030004;28;20029;-59
2022/12/01 11:48:03;;;;;;;68.38;20.00;;;;;;;;;;5033766;28;20033;-59
2022/12/01 11:50:29;;;;;;;61.20;19.15;;;;;;;;;;5034307;28;20034;-58
2022/12/01 11:52:54;;;;;;;70.50;21.30;;;;;;;;;;5033076;28;20071;-58
2022/12/01 11:55:21;;;;;;;58.90;18.10;;;;;;;;;;5034355;28;20520;-58
2022/12/01 11:57:48;;;;;;;72.20;21.55;;;;;;;;;;5034513;28;20029;-58
2022/12/01 12:00:27;;;;;;;64.72;20.17;;;;;;;;;;5034270;28;20013;-59
2022/12/01 12:03:10;;;;;;;63.47;19.48;;;;;;;;;;5032812;28;20029;-58
2022/12/01 12:05:44;;;;;;;63.05;18.45;;;;;;;;;;5034388;28;20033;-59
2022/12/01 12:08:15;;;;;;;62.90;19.48;;;;;;;;;;5034161;28;20056;-59
2022/12/01 12:10:48;;;;;;;66.28;19.70;;;;;;;;;;5034321;28;20072;-59
2022/12/01 12:13:14;;;;;;;61.65;17.95;;;;;;;;;;5032489;28;20493;-59
2022/12/01 12:15:41;;;;;;;57.37;18.83;;;;;;;;;;5034099;28;20022;-58
2022/12/01 12:18:15;;;;;;;57.17;17.80;;;;;;;;;;5033868;28;20033;-59
2022/12/01 12:20:49;;;;;;;62.55;19.00;;;;;;;;;;5034229;28;20021;-59
2022/12/01 12:23:20;;;;;;;59.53;19.02;;;;;;;;;;5028880;28;20029;-58
2022/12/01 12:25:57;;;;;;;55.80;17.92;;;;;;;;;;5031892;28;20476;-60
2022/12/01 12:28:41;;;;;;;56.05;18.63;;;;;;;;;;5033848;28;20040;-60
2022/12/01 12:31:12;;;;;;;50.20;16.60;;;;;;;;;;5033588;28;20116;-60
2022/12/01 12:33:56;;;;;;;58.20;17.83;;;;;;;;;;5033431;28;20025;-57
2022/12/01 12:36:30;;;;;;;54.55;18.10;;;;;;;;;;5026972;28;20113;-58
2022/12/01 12:39:08;;;;;;;50.47;15.93;;;;;;;;;;5027482;28;20534;-59
2022/12/01 12:41:49;;;;;;;52.78;17.65;;;;;;;;;;5033481;28;20523;-58
2022/12/01 12:44:32;;;;;;;54.75;18.08;;;;;;;;;;5033280;28;20035;-59
2022/12/01 12:47:00;;;;;;;54.53;17.55;;;;;;;;;;5033520;28;20025;-59
2022/12/01 12:49:46;;;;;;;52.63;17.75;;;;;;;;;;5032221;28;20369;-59
2022/12/01 12:52:21;;;;;;;51.83;16.38;;;;;;;;;;5033069;28;20026;-59
2022/12/01 12:54:52;;;;;;;47.55;15.90;;;;;;;;;;5033497;28;20424;-60
2022/12/01 12:57:26;;;;;;;52.17;15.63;;;;;;;;;;5031940;28;20013;-60
2022/12/01 13:00:00;;;;;;;51.85;16.92;;;;;;;;;;5031836;28;20023;-59
2022/12/01 13:02:37;;;;;;;48.65;17.17;;;;;;;;;;5032853;28;20018;-60
2022/12/01 13:05:11;;;;;;;56.70;17.20;;;;;;;;;;5032013;28;20053;-58
2022/12/01 13:07:41;;;;;;;54.80;17.85;;;;;;;;;;5028621;28;20025;-59
2022/12/01 13:10:14;;;;;;;52.42;16.10;;;;;;;;;;5026858;28;20375;-59
2022/12/01 13:12:42;;;;;;;51.40;16.52;;;;;;;;;;5030606;28;20049;-60
2022/12/01 13:15:15;;;;;;;53.13;17.92;;;;;;;;;;5033005;28;20025;-59
2022/12/01 13:17:42;;;;;;;49.58;16.73;;;;;;;;;;5032956;28;20018;-59
2022/12/01 13:20:13;;;;;;;52.97;16.38;;;;;;;;;;5032686;28;20468;-60
2022/12/01 13:22:38;;;;;;;51.05;17.05;;;;;;;;;;5032547;28;20137;-58
2022/12/01 13:25:04;;;;;;;54.88;18.67;;;;;;;;;;5013098;28;20116;-60
2022/12/01 13:27:37;;;;;;;58.30;18.58;;;;;;;;;;5012767;28;20708;-59
2022/12/01 13:30:02;;;;;;;57.28;18.10;;;;;;;;;;5025914;28;20128;-59
2022/12/01 13:32:30;;;;;;;51.95;17.77;;;;;;;;;;5030648;28;20031;-59
2022/12/01 13:34:56;;;;;;;55.40;17.73;;;;;;;;;;5032452;28;20032;-59
2022/12/01 13:37:26;;;;;;;55.85;18.27;;;;;;;;;;5032457;28;20024;-59
2022/12/01 13:39:52;;;;;;;55.15;18.33;;;;;;;;;;5031321;28;20022;-59
2022/12/01 13:42:20;;;;;;;58.90;18.45;;;;;;;;;;5031982;28;20416;-59
2022/12/01 13:44:51;;;;;;;59.88;18.63;;;;;;;;;;5032256;28;20026;-59
2022/12/01 13:47:19;;;;;;;57.47;18.30;;;;;;;;;;5031747;28;20033;-60
2022/12/01 13:49:48;;;;;;;56.33;18.15;;;;;;;;;;5031346;28;20022;-60
2022/12/01 13:52:19;;;;;;;68.20;20.00;;;;;;;;;;5031980;28;20026;-59
2022/12/01 13:55:03;;;;;;;54.72;18.35;;;;;;;;;;5032187;28;20013;-60
2022/12/01 13:57:30;;;;;;;56.83;17.65;;;;;;;;;;5031701;28;20113;-59
2022/12/01 13:59:59;;;;;;;56.72;18.08;;;;;;;;;;5030785;28;20029;-58
2022/12/01 14:02:31;;;;;;;60.10;18.77;;;;;;;;;;5030102;28;20045;-58
2022/12/01 14:05:15;;;;;;;61.05;19.80;;;;;;;;;;5028246;28;20100;-58
2022/12/01 14:07:40;;;;;;;56.38;19.48;;;;;;;;;;5030749;28;20392;-58
2022/12/01 14:10:15;;;;;;;58.40;19.33;;;;;;;;;;5030745;28;20017;-58
2022/12/01 14:12:43;;;;;;;53.83;17.95;;;;;;;;;;5024526;28;20582;-57
2022/12/01 14:15:29;;;;;;;58.63;17.75;;;;;;;;;;5031450;28;20032;-60
2022/12/01 14:18:06;;;;;;;57.00;18.45;;;;;;;;;;5028935;28;20049;-58
2022/12/01 14:20:33;;;;;;;55.75;18.40;;;;;;;;;;5029709;28;20021;-58
2022/12/01 14:23:17;;;;;;;57.75;17.08;;;;;;;;;;5031063;28;20021;-59
2022/12/01 14:25:55;;;;;;;53.95;17.42;;;;;;;;;;5011581;28;20236;-58
2022/12/01 14:28:40;;;;;;;64.45;20.88;;;;;;;;;;5018385;28;20036;-59